This is the latest recevied weather packets stored in our database for station/object DC1RS. If no packets are shown the sender has not sent any weather packets the latest 10 day(s).
| Time | Temp. | Humidity | Pressure | Rain* | Wind** | Luminosity | Snow |
|---|---|---|---|---|---|---|---|
| 1777848491 | 13.33° C | 67% | 1010.7 hPa | 0 mm | - | 0 W/m² | - |
| 1777846902 | 14.44° C | 63% | 1010.8 hPa | 0 mm | - | 0 W/m² | - |
| 1777844931 | 14.44° C | 61% | 1010.4 hPa | 0 mm | - | 0 W/m² | - |
| 1777843341 | 15° C | 57% | 1010.1 hPa | 0 mm | - | 0 W/m² | - |
| 1777842741 | 15.56° C | 54% | 1009.7 hPa | 0 mm | - | 0 W/m² | - |
| 1777842251 | 16.11° C | 53% | 1009.9 hPa | 0 mm | - | 0 W/m² | - |
| 1777840662 | 17.22° C | 50% | 1009.7 hPa | 0 mm | - | 0 W/m² | - |
| 1777838931 | 17.78° C | 49% | 1009.9 hPa | 0 mm | - | 0 W/m² | - |
| 1777838271 | 17.22° C | 50% | 1009.8 hPa | 0 mm | - | 0 W/m² | - |
| 1777836681 | 18.33° C | 49% | 1009.7 hPa | 0 mm | - | 0 W/m² | - |
| 1777835232 | 19.44° C | 49% | 1009.7 hPa | 0 mm | - | 0 W/m² | - |
| 1777833861 | 20.56° C | 46% | 1009.6 hPa | 0 mm | - | 0 W/m² | - |
| 1777832271 | 21.11° C | 47% | 1009.5 hPa | 0 mm | - | 4 W/m² | - |
| 1777830051 | 23.33° C | 40% | 1009.5 hPa | 0 mm | - | 26 W/m² | - |
| 1777828431 | 25° C | 38% | 1009.3 hPa | 0 mm | - | 45 W/m² | - |
| 1777826541 | 26.67° C | 30% | 1009.7 hPa | 0 mm | - | 81 W/m² | - |
| 1777824922 | 27.22° C | 27% | 1009.6 hPa | 0 mm | - | 216 W/m² | - |
| 1777823661 | 28.33° C | 24% | 1009.9 hPa | 0 mm | - | 190 W/m² | - |
| 1777822042 | 27.78° C | 25% | 1010.2 hPa | 0 mm | - | 326 W/m² | - |
| 1777819581 | 28.33° C | 26% | 1010.7 hPa | 0 mm | - | 437 W/m² | - |
| 1777817991 | 28.33° C | 27% | 1011.5 hPa | 0 mm | - | 572 W/m² | - |
| 1777816602 | 27.78° C | 29% | 1011.8 hPa | 0 mm | - | 641 W/m² | - |
| 1777814901 | 28.89° C | 26% | 1012.2 hPa | 0 mm | - | 620 W/m² | - |
| 1777813311 | 27.78° C | 28% | 1012.9 hPa | 0 mm | - | 721 W/m² | - |
| 1777812821 | 27.78° C | 28% | 1013.3 hPa | 0 mm | - | 752 W/m² | - |
* Rain latest hour (hover to see other rain measurements)
** Current wind speed in m/s (hover to see current wind gust speed)